Strona główna
METAR-TAF:

METAR-TAF

Lotnisko :

Port lotniczy Skopje

Skopje, Macedonia

Szerokość geograficzna: 41-58N, Długość geograficzna: 021-39E, wysokość: 238 m

Aktualna obserwacja pogody

Raport powstał 9 minut temu, godzina 11:00 UTC
Cisza
Temperatura 32°C
Wilgotność 32%
Ciśnienie 1019 hPa
Widzialność 10 km lub więcej
Mało chmury na wysokości 5000 ft

METAR: LWSK 211100Z 00000KT 9999 FEW050 32/13 Q1019 NOSIG

czas: 13:09 (11:09 UTC)

Prognoza

Raport powstał 2 godziny i 39 minut temu, godzina 08:30 UTC
Prognoza ważna od 21 godzina 09 UTC do 22 godzina 09 UTC
Wiatr 2 kt z kierunków zmiennych
Widzialność 10 km lub więcej
Brak chmur poniżej 1500 m i brak chmur cumulonimbus
Przejściowo
od 21 godzina 12 UTC do 21 godzina 18 UTC
Wiatr 10 kt od północ
Rozproszone chmury na wysokości 5000 ft

TAF: LWSK 210830Z 2109/2209 VRB02KT CAVOK TEMPO 2112/2118 36010KT SCT050

Obserwacja i prognoza pogody dla ponad 4000 lotnisk (raport METAR i TAF).

Dostępne stacje oznaczono żółtymi i czerwonymi punktami na mapie.

Najedź kursorem aby zobaczyć nazwę stacji.

Kliknij aby zobaczyć obserwacje i prognozy pogody.

Aby zmienić mapę: kliknij na zielony przycisk z czarnym krzyżykiem, aby powiększyć; na zielony przycisk z myślnikiem, aby pomniejszyć; na zielone strzałki, aby przejść do map sąsiednich.


METAR-TAF: